Liberty Island — HPUY — position and weather

sailwx.info

Track history (hours):
 
Tides and Currents Weather Stations Pressure Air Temp Water Temp Dewpoint Dewpoint Depression Visibility Wind Speed Wind Dir Waves Ship Positions

Liberty Island

Last reported at 2016-Nov-25 07:33 UTC. Time now 2016-Dec-06 17:55 UTC.
Position N 31°17' E 121°44'.
Warning: this ship's position is 11 days out of date.

Length 178 m; draft 6.8 m.

Type: Cargo ship. MMSI: 355886000.

Date/timePositionNaut miles runAvg speedWind from/ knotsBaromVisibWave heightAir tempDewpointWater temp
2016-Nov-25 07:33N 31°17' E 121°44'1212.3
2016-Nov-25 06:33N 31°24' E 121°33'1010.1
2016-Nov-25 05:33N 31°31' E 121°24'1312.7
2016-Nov-25 04:33N 31°39' E 121°13'1212.0
2016-Nov-25 03:32N 31°46' E 121°01'  
2016-Nov-22 15:30N 31°46' E 120°57'0 0.0
2016-Nov-22 10:06N 31°46' E 120°57'0 0.0
2016-Nov-22 09:18N 31°46' E 120°57'0 0.0
2016-Nov-21 23:27N 31°46' E 120°57'0 0.0
2016-Nov-21 21:15N 31°46' E 120°57'0 0.0
2016-Nov-20 07:06N 31°46' E 120°57'0 0.0
2016-Nov-20 06:12N 31°46' E 120°57'0 0.0
2016-Nov-20 05:18N 31°46' E 120°57'0 0.2
2016-Nov-20 03:31N 31°46' E 120°57'31 0.8
2016-Nov-18 12:33N 32°01' E 120°25'1010.5
2016-Nov-18 11:33N 31°56' E 120°14'16 0.6
2016-Nov-17 06:33N 32°03' E 119°56'31 7.4
2016-Nov-17 02:20N 32°00' E 120°33'0 0.0
2016-Nov-16 22:17N 31°60' E 120°33'0 0.0
2016-Nov-16 19:23N 31°60' E 120°33'0 0.0
2016-Nov-16 18:23N 31°60' E 120°33'0 0.0
2016-Nov-16 12:20N 31°60' E 120°33'0 0.0
2016-Nov-16 08:18N 31°60' E 120°33'0 0.1
2016-Nov-16 07:33N 31°60' E 120°33'22 7.3
2016-Nov-16 04:31N 31°48' E 120°55'8 8.3
2016-Nov-16 03:32N 31°46' E 121°05'8 8.7
2016-Nov-16 02:33N 31°40' E 121°12'4 3.9
2016-Nov-16 01:32N 31°38' E 121°16'0 0.0
2016-Nov-15 21:32N 31°38' E 121°16'12 6.0
2016-Nov-15 19:33N 31°29' E 121°26'8 8.1
2016-Nov-15 18:33N 31°24' E 121°33'  
Track history (hours):
 
Tides and Currents Weather Stations Pressure Air Temp Water Temp Dewpoint Dewpoint Depression Visibility Wind Speed Wind Dir Waves Ship Positions

Liberty Island

Last reported at 2016-Nov-25 07:33 UTC. Time now 2016-Dec-06 17:55 UTC.
Position N 31°17' E 121°44'.
Warning: this ship's position is 11 days out of date.

Length 178 m; draft 6.8 m.

Type: Cargo ship. MMSI: 355886000.

Date/timePositionNaut miles runAvg speedWind from/ knotsBaromVisibWave heightAir tempDewpointWater temp
2016-Nov-25 07:33N 31°17' E 121°44'1212.3
2016-Nov-25 06:33N 31°24' E 121°33'1010.1
2016-Nov-25 05:33N 31°31' E 121°24'1312.7
2016-Nov-25 04:33N 31°39' E 121°13'1212.0
2016-Nov-25 03:32N 31°46' E 121°01'  
2016-Nov-22 15:30N 31°46' E 120°57'0 0.0
2016-Nov-22 10:06N 31°46' E 120°57'0 0.0
2016-Nov-22 09:18N 31°46' E 120°57'0 0.0
2016-Nov-21 23:27N 31°46' E 120°57'0 0.0
2016-Nov-21 21:15N 31°46' E 120°57'0 0.0
2016-Nov-20 07:06N 31°46' E 120°57'0 0.0
2016-Nov-20 06:12N 31°46' E 120°57'0 0.0
2016-Nov-20 05:18N 31°46' E 120°57'0 0.2
2016-Nov-20 03:31N 31°46' E 120°57'31 0.8
2016-Nov-18 12:33N 32°01' E 120°25'1010.5
2016-Nov-18 11:33N 31°56' E 120°14'16 0.6
2016-Nov-17 06:33N 32°03' E 119°56'31 7.4
2016-Nov-17 02:20N 32°00' E 120°33'0 0.0
2016-Nov-16 22:17N 31°60' E 120°33'0 0.0
2016-Nov-16 19:23N 31°60' E 120°33'0 0.0
2016-Nov-16 18:23N 31°60' E 120°33'0 0.0
2016-Nov-16 12:20N 31°60' E 120°33'0 0.0
2016-Nov-16 08:18N 31°60' E 120°33'0 0.1
2016-Nov-16 07:33N 31°60' E 120°33'22 7.3
2016-Nov-16 04:31N 31°48' E 120°55'8 8.3
2016-Nov-16 03:32N 31°46' E 121°05'8 8.7
2016-Nov-16 02:33N 31°40' E 121°12'4 3.9
2016-Nov-16 01:32N 31°38' E 121°16'0 0.0
2016-Nov-15 21:32N 31°38' E 121°16'12 6.0
2016-Nov-15 19:33N 31°29' E 121°26'8 8.1
2016-Nov-15 18:33N 31°24' E 121°33'  

Dump ship's entire track history